Rechercher aéroport 
image banner adimage banner ad
image banner ad

SVOZ - Banco Occidental De Descuento

Situé à Maracaibo, Venezuela

ICAO - SVOZ, IATA -

Données fournies par Airmate  

Information générale

Coordonnées: N10°39'57" W71°37'6"
Élévation : 209 feet MSL.
 
Voir autres Aéroports à Apure

Données opérationnelles

Accessible au public
Heure actuelle UTC:
Heure actuelle locale:
Météo à : SVMC - Maracaibo / La Chinita Intl ( 17 km )
METAR: SVMC 300802Z AUTO 02004KT NCD 26/23 Q1010
TAF: TAF SVMC 300400Z 3006/0106 18003KT 9999 SCT016 TX34/3019Z TN25/3008Z PROB30 TEMPO 3006/3010 11002KT 9000 -DZ BKN100
Voir NOTAMs / SUP AIP / TFR affectant cet aéroport [VIEW]
Fréquences de communication: [VIEW]

Pistes:

Coordonnées de l'aéroport

Adresse: Maracaibo Venezuela

Vue satellite de SVOZ